sensor_id;sensor_type;location;lat;lon;timestamp;temperature;humidity
23186;DHT22;11761;51.324;4.590;2022-09-09T00:00:49;13.40;99.90
23186;DHT22;11761;51.324;4.590;2022-09-09T00:03:17;13.40;99.90
23186;DHT22;11761;51.324;4.590;2022-09-09T00:06:08;13.40;99.90
23186;DHT22;11761;51.324;4.590;2022-09-09T00:08:50;13.40;99.90
23186;DHT22;11761;51.324;4.590;2022-09-09T00:11:33;13.40;99.90
23186;DHT22;11761;51.324;4.590;2022-09-09T00:14:11;13.40;99.90
23186;DHT22;11761;51.324;4.590;2022-09-09T00:16:42;13.40;99.90
23186;DHT22;11761;51.324;4.590;2022-09-09T00:19:20;13.40;99.90
23186;DHT22;11761;51.324;4.590;2022-09-09T00:24:46;13.30;99.90
23186;DHT22;11761;51.324;4.590;2022-09-09T00:27:32;13.40;99.90
23186;DHT22;11761;51.324;4.590;2022-09-09T00:32:52;13.40;99.90
23186;DHT22;11761;51.324;4.590;2022-09-09T00:35:49;13.30;99.90
23186;DHT22;11761;51.324;4.590;2022-09-09T00:38:21;13.30;99.90
23186;DHT22;11761;51.324;4.590;2022-09-09T00:40:58;13.30;99.90
23186;DHT22;11761;51.324;4.590;2022-09-09T00:46:10;13.30;99.90
23186;DHT22;11761;51.324;4.590;2022-09-09T00:51:17;13.30;99.90
23186;DHT22;11761;51.324;4.590;2022-09-09T01:04:49;13.30;99.90
23186;DHT22;11761;51.324;4.590;2022-09-09T01:07:18;13.30;99.90
23186;DHT22;11761;51.324;4.590;2022-09-09T01:09:52;13.30;99.90
23186;DHT22;11761;51.324;4.590;2022-09-09T01:12:41;13.30;99.90
23186;DHT22;11761;51.324;4.590;2022-09-09T01:15:30;13.30;99.90
23186;DHT22;11761;51.324;4.590;2022-09-09T01:18:12;13.30;99.90
23186;DHT22;11761;51.324;4.590;2022-09-09T01:26:15;13.20;99.90
23186;DHT22;11761;51.324;4.590;2022-09-09T01:28:46;13.10;99.90
23186;DHT22;11761;51.324;4.590;2022-09-09T01:31:59;13.10;99.90
23186;DHT22;11761;51.324;4.590;2022-09-09T01:34:15;13.10;99.90
23186;DHT22;11761;51.324;4.590;2022-09-09T01:36:59;13.20;99.90
23186;DHT22;11761;51.324;4.590;2022-09-09T01:39:28;13.20;99.90
23186;DHT22;11761;51.324;4.590;2022-09-09T01:41:55;13.20;99.90
23186;DHT22;11761;51.324;4.590;2022-09-09T01:44:22;13.10;99.90
23186;DHT22;11761;51.324;4.590;2022-09-09T01:46:48;13.00;99.90
23186;DHT22;11761;51.324;4.590;2022-09-09T01:49:16;13.00;99.90
23186;DHT22;11761;51.324;4.590;2022-09-09T01:51:42;13.00;99.90
23186;DHT22;11761;51.324;4.590;2022-09-09T01:54:10;13.00;99.90
23186;DHT22;11761;51.324;4.590;2022-09-09T01:57:33;13.00;99.90
23186;DHT22;11761;51.324;4.590;2022-09-09T02:04:49;13.00;99.90
23186;DHT22;11761;51.324;4.590;2022-09-09T02:10:10;13.00;99.90
23186;DHT22;11761;51.324;4.590;2022-09-09T02:12:43;13.00;99.90
23186;DHT22;11761;51.324;4.590;2022-09-09T02:15:40;13.00;99.90
23186;DHT22;11761;51.324;4.590;2022-09-09T02:18:10;13.00;99.90
23186;DHT22;11761;51.324;4.590;2022-09-09T02:20:39;13.00;99.90
23186;DHT22;11761;51.324;4.590;2022-09-09T02:23:07;13.10;99.90
23186;DHT22;11761;51.324;4.590;2022-09-09T02:25:36;13.00;99.90
23186;DHT22;11761;51.324;4.590;2022-09-09T02:28:05;13.00;99.90
23186;DHT22;11761;51.324;4.590;2022-09-09T02:30:34;13.00;99.90
23186;DHT22;11761;51.324;4.590;2022-09-09T02:33:04;12.90;99.90
23186;DHT22;11761;51.324;4.590;2022-09-09T02:35:32;13.00;99.90
23186;DHT22;11761;51.324;4.590;2022-09-09T02:38:07;12.90;99.90
23186;DHT22;11761;51.324;4.590;2022-09-09T02:40:34;12.90;99.90
23186;DHT22;11761;51.324;4.590;2022-09-09T02:43:01;12.90;99.90
23186;DHT22;11761;51.324;4.590;2022-09-09T02:45:37;12.90;99.90
23186;DHT22;11761;51.324;4.590;2022-09-09T02:50:40;12.90;99.90
23186;DHT22;11761;51.324;4.590;2022-09-09T02:53:20;12.90;99.90
23186;DHT22;11761;51.324;4.590;2022-09-09T02:56:04;12.90;99.90
23186;DHT22;11761;51.324;4.590;2022-09-09T02:58:32;12.90;99.90
23186;DHT22;11761;51.324;4.590;2022-09-09T03:00:58;12.90;99.90
23186;DHT22;11761;51.324;4.590;2022-09-09T03:03:27;12.90;99.90
23186;DHT22;11761;51.324;4.590;2022-09-09T03:05:53;13.00;99.90
23186;DHT22;11761;51.324;4.590;2022-09-09T03:08:19;12.90;99.90
23186;DHT22;11761;51.324;4.590;2022-09-09T03:10:45;12.90;99.90
23186;DHT22;11761;51.324;4.590;2022-09-09T03:13:11;12.80;99.90
23186;DHT22;11761;51.324;4.590;2022-09-09T03:15:38;12.90;99.90
23186;DHT22;11761;51.324;4.590;2022-09-09T03:18:04;12.90;99.90
23186;DHT22;11761;51.324;4.590;2022-09-09T03:20:31;12.90;99.90
23186;DHT22;11761;51.324;4.590;2022-09-09T03:22:59;12.90;99.90
23186;DHT22;11761;51.324;4.590;2022-09-09T03:25:25;12.90;99.90
23186;DHT22;11761;51.324;4.590;2022-09-09T03:27:53;13.00;99.90
23186;DHT22;11761;51.324;4.590;2022-09-09T03:30:22;12.90;99.90
23186;DHT22;11761;51.324;4.590;2022-09-09T03:32:48;13.00;99.90
23186;DHT22;11761;51.324;4.590;2022-09-09T03:35:14;13.10;99.90
23186;DHT22;11761;51.324;4.590;2022-09-09T03:37:41;13.10;99.90
23186;DHT22;11761;51.324;4.590;2022-09-09T03:40:08;13.10;99.90
23186;DHT22;11761;51.324;4.590;2022-09-09T03:42:36;13.20;99.90
23186;DHT22;11761;51.324;4.590;2022-09-09T03:45:04;13.20;99.90
23186;DHT22;11761;51.324;4.590;2022-09-09T03:47:30;13.20;99.90
23186;DHT22;11761;51.324;4.590;2022-09-09T03:49:57;13.20;99.90
23186;DHT22;11761;51.324;4.590;2022-09-09T03:52:24;13.20;99.90
23186;DHT22;11761;51.324;4.590;2022-09-09T03:54:53;13.20;99.90
23186;DHT22;11761;51.324;4.590;2022-09-09T03:57:20;13.20;99.90
23186;DHT22;11761;51.324;4.590;2022-09-09T03:59:46;13.20;99.90
23186;DHT22;11761;51.324;4.590;2022-09-09T04:02:12;13.10;99.90
23186;DHT22;11761;51.324;4.590;2022-09-09T04:04:38;13.20;99.90
23186;DHT22;11761;51.324;4.590;2022-09-09T04:07:04;13.20;99.90
23186;DHT22;11761;51.324;4.590;2022-09-09T04:09:33;13.20;99.90
23186;DHT22;11761;51.324;4.590;2022-09-09T04:11:59;13.20;99.90
23186;DHT22;11761;51.324;4.590;2022-09-09T04:14:25;13.20;99.90
23186;DHT22;11761;51.324;4.590;2022-09-09T04:16:54;13.30;99.90
23186;DHT22;11761;51.324;4.590;2022-09-09T04:19:21;13.30;99.90
23186;DHT22;11761;51.324;4.590;2022-09-09T04:21:47;13.30;99.90
23186;DHT22;11761;51.324;4.590;2022-09-09T04:24:17;13.40;99.90
23186;DHT22;11761;51.324;4.590;2022-09-09T04:26:43;13.30;99.90
23186;DHT22;11761;51.324;4.590;2022-09-09T04:29:09;13.20;99.90
23186;DHT22;11761;51.324;4.590;2022-09-09T04:31:35;13.20;99.90
23186;DHT22;11761;51.324;4.590;2022-09-09T04:34:01;13.20;99.90
23186;DHT22;11761;51.324;4.590;2022-09-09T04:36:32;13.20;99.90
23186;DHT22;11761;51.324;4.590;2022-09-09T04:38:58;13.30;99.90
23186;DHT22;11761;51.324;4.590;2022-09-09T04:41:24;13.30;99.90
23186;DHT22;11761;51.324;4.590;2022-09-09T04:43:51;13.40;99.90
23186;DHT22;11761;51.324;4.590;2022-09-09T04:46:20;13.50;99.90
23186;DHT22;11761;51.324;4.590;2022-09-09T04:48:46;13.40;99.90
23186;DHT22;11761;51.324;4.590;2022-09-09T04:51:13;13.50;99.90
23186;DHT22;11761;51.324;4.590;2022-09-09T04:53:40;13.50;99.90
23186;DHT22;11761;51.324;4.590;2022-09-09T04:56:08;13.40;99.90
23186;DHT22;11761;51.324;4.590;2022-09-09T04:58:36;13.50;99.90
23186;DHT22;11761;51.324;4.590;2022-09-09T05:01:15;13.40;99.90
23186;DHT22;11761;51.324;4.590;2022-09-09T05:03:43;13.40;99.90
23186;DHT22;11761;51.324;4.590;2022-09-09T05:06:13;13.50;99.90
23186;DHT22;11761;51.324;4.590;2022-09-09T05:08:40;13.50;99.90
23186;DHT22;11761;51.324;4.590;2022-09-09T05:11:20;13.50;99.90
23186;DHT22;11761;51.324;4.590;2022-09-09T05:13:49;13.50;99.90
23186;DHT22;11761;51.324;4.590;2022-09-09T05:16:16;13.60;99.90
23186;DHT22;11761;51.324;4.590;2022-09-09T05:18:43;13.60;99.90
23186;DHT22;11761;51.324;4.590;2022-09-09T05:21:11;13.60;99.90
23186;DHT22;11761;51.324;4.590;2022-09-09T05:23:37;13.60;99.90
23186;DHT22;11761;51.324;4.590;2022-09-09T05:26:05;13.60;99.90
23186;DHT22;11761;51.324;4.590;2022-09-09T05:28:34;13.60;99.90
23186;DHT22;11761;51.324;4.590;2022-09-09T05:31:06;13.60;99.90
23186;DHT22;11761;51.324;4.590;2022-09-09T05:33:34;13.70;99.90
23186;DHT22;11761;51.324;4.590;2022-09-09T05:36:05;13.70;99.90
23186;DHT22;11761;51.324;4.590;2022-09-09T05:38:32;13.80;99.90
23186;DHT22;11761;51.324;4.590;2022-09-09T05:40:59;13.80;99.90
23186;DHT22;11761;51.324;4.590;2022-09-09T05:43:26;13.90;99.90
23186;DHT22;11761;51.324;4.590;2022-09-09T05:46:04;13.90;99.90
23186;DHT22;11761;51.324;4.590;2022-09-09T05:48:32;13.90;99.90
23186;DHT22;11761;51.324;4.590;2022-09-09T05:50:59;13.90;99.90
23186;DHT22;11761;51.324;4.590;2022-09-09T05:53:26;14.00;99.90
23186;DHT22;11761;51.324;4.590;2022-09-09T05:56:15;14.00;99.90
23186;DHT22;11761;51.324;4.590;2022-09-09T05:58:42;14.10;99.90
23186;DHT22;11761;51.324;4.590;2022-09-09T06:01:15;14.10;99.90
23186;DHT22;11761;51.324;4.590;2022-09-09T06:03:43;14.20;99.90
23186;DHT22;11761;51.324;4.590;2022-09-09T06:06:12;14.30;99.90
23186;DHT22;11761;51.324;4.590;2022-09-09T06:08:40;14.40;99.90
23186;DHT22;11761;51.324;4.590;2022-09-09T06:11:15;14.40;99.90
23186;DHT22;11761;51.324;4.590;2022-09-09T06:13:42;14.50;99.90
23186;DHT22;11761;51.324;4.590;2022-09-09T06:16:11;14.60;99.90
23186;DHT22;11761;51.324;4.590;2022-09-09T06:18:38;14.60;99.90
23186;DHT22;11761;51.324;4.590;2022-09-09T06:21:06;14.60;99.90
23186;DHT22;11761;51.324;4.590;2022-09-09T06:23:34;14.60;99.90
23186;DHT22;11761;51.324;4.590;2022-09-09T06:28:35;14.60;99.90
23186;DHT22;11761;51.324;4.590;2022-09-09T06:31:05;14.60;99.90
23186;DHT22;11761;51.324;4.590;2022-09-09T06:33:36;14.60;99.90
23186;DHT22;11761;51.324;4.590;2022-09-09T06:36:05;14.70;99.90
23186;DHT22;11761;51.324;4.590;2022-09-09T06:38:31;14.70;99.90
23186;DHT22;11761;51.324;4.590;2022-09-09T06:40:59;14.60;99.90
23186;DHT22;11761;51.324;4.590;2022-09-09T06:43:26;14.70;99.90
23186;DHT22;11761;51.324;4.590;2022-09-09T06:46:00;14.70;99.90
23186;DHT22;11761;51.324;4.590;2022-09-09T06:48:27;14.80;99.90
23186;DHT22;11761;51.324;4.590;2022-09-09T06:53:35;15.00;99.90
23186;DHT22;11761;51.324;4.590;2022-09-09T06:56:17;15.10;99.90
23186;DHT22;11761;51.324;4.590;2022-09-09T06:58:44;15.00;99.90
23186;DHT22;11761;51.324;4.590;2022-09-09T07:01:13;14.90;99.90
23186;DHT22;11761;51.324;4.590;2022-09-09T07:03:40;15.00;99.90
23186;DHT22;11761;51.324;4.590;2022-09-09T07:06:07;15.00;99.90
23186;DHT22;11761;51.324;4.590;2022-09-09T07:08:35;14.90;99.90
23186;DHT22;11761;51.324;4.590;2022-09-09T07:11:05;15.00;99.90
23186;DHT22;11761;51.324;4.590;2022-09-09T07:13:32;14.90;99.90
23186;DHT22;11761;51.324;4.590;2022-09-09T07:16:06;14.90;99.90
23186;DHT22;11761;51.324;4.590;2022-09-09T07:18:32;15.00;99.90
23186;DHT22;11761;51.324;4.590;2022-09-09T07:20:59;14.90;99.90
23186;DHT22;11761;51.324;4.590;2022-09-09T07:23:25;15.00;99.90
23186;DHT22;11761;51.324;4.590;2022-09-09T07:25:52;15.10;99.90
23186;DHT22;11761;51.324;4.590;2022-09-09T07:28:22;15.00;99.90
23186;DHT22;11761;51.324;4.590;2022-09-09T07:30:59;15.00;99.90
23186;DHT22;11761;51.324;4.590;2022-09-09T07:33:29;15.10;99.90
23186;DHT22;11761;51.324;4.590;2022-09-09T07:36:04;15.00;99.90
23186;DHT22;11761;51.324;4.590;2022-09-09T07:38:31;15.20;99.90
23186;DHT22;11761;51.324;4.590;2022-09-09T07:41:08;15.20;99.90
23186;DHT22;11761;51.324;4.590;2022-09-09T07:43:42;15.20;99.90
23186;DHT22;11761;51.324;4.590;2022-09-09T07:46:11;15.20;99.90
23186;DHT22;11761;51.324;4.590;2022-09-09T07:48:38;15.30;99.90
23186;DHT22;11761;51.324;4.590;2022-09-09T07:51:12;15.40;99.90
23186;DHT22;11761;51.324;4.590;2022-09-09T07:53:40;15.30;99.90
23186;DHT22;11761;51.324;4.590;2022-09-09T07:56:13;15.30;99.90
23186;DHT22;11761;51.324;4.590;2022-09-09T07:58:40;15.20;99.90
23186;DHT22;11761;51.324;4.590;2022-09-09T08:01:08;15.20;99.90
23186;DHT22;11761;51.324;4.590;2022-09-09T08:03:35;15.40;99.90
23186;DHT22;11761;51.324;4.590;2022-09-09T08:06:06;15.40;99.90
23186;DHT22;11761;51.324;4.590;2022-09-09T08:08:35;15.40;99.90
23186;DHT22;11761;51.324;4.590;2022-09-09T08:11:07;15.30;99.90
23186;DHT22;11761;51.324;4.590;2022-09-09T08:13:35;15.30;99.90
23186;DHT22;11761;51.324;4.590;2022-09-09T08:16:14;15.20;99.90
23186;DHT22;11761;51.324;4.590;2022-09-09T08:18:41;15.20;99.90
23186;DHT22;11761;51.324;4.590;2022-09-09T08:21:10;15.20;99.90
23186;DHT22;11761;51.324;4.590;2022-09-09T08:23:39;15.20;99.90
23186;DHT22;11761;51.324;4.590;2022-09-09T08:28:39;15.20;99.90
23186;DHT22;11761;51.324;4.590;2022-09-09T08:31:16;15.20;99.90
23186;DHT22;11761;51.324;4.590;2022-09-09T08:33:43;15.20;99.90
23186;DHT22;11761;51.324;4.590;2022-09-09T08:36:15;15.20;99.90
23186;DHT22;11761;51.324;4.590;2022-09-09T08:38:42;15.20;99.90
23186;DHT22;11761;51.324;4.590;2022-09-09T08:51:32;15.10;99.90
23186;DHT22;11761;51.324;4.590;2022-09-09T08:54:02;15.20;99.90
23186;DHT22;11761;51.324;4.590;2022-09-09T08:56:31;15.20;99.90
23186;DHT22;11761;51.324;4.590;2022-09-09T08:59:00;15.30;99.90
23186;DHT22;11761;51.324;4.590;2022-09-09T09:04:29;15.30;99.90
23186;DHT22;11761;51.324;4.590;2022-09-09T09:07:11;15.40;99.90
23186;DHT22;11761;51.324;4.590;2022-09-09T09:12:16;15.40;99.90
23186;DHT22;11761;51.324;4.590;2022-09-09T09:14:43;15.60;99.90
23186;DHT22;11761;51.324;4.590;2022-09-09T09:17:13;15.60;99.90
23186;DHT22;11761;51.324;4.590;2022-09-09T09:19:41;15.70;99.90
23186;DHT22;11761;51.324;4.590;2022-09-09T09:22:18;15.70;99.90
23186;DHT22;11761;51.324;4.590;2022-09-09T09:30:22;15.70;99.90
23186;DHT22;11761;51.324;4.590;2022-09-09T09:32:59;15.70;99.90
23186;DHT22;11761;51.324;4.590;2022-09-09T09:35:27;15.70;99.90
23186;DHT22;11761;51.324;4.590;2022-09-09T09:37:53;15.70;99.90
23186;DHT22;11761;51.324;4.590;2022-09-09T09:40:21;15.70;99.90
23186;DHT22;11761;51.324;4.590;2022-09-09T09:43:16;15.70;99.90
23186;DHT22;11761;51.324;4.590;2022-09-09T09:45:44;15.70;99.90
23186;DHT22;11761;51.324;4.590;2022-09-09T09:48:14;15.60;99.90
23186;DHT22;11761;51.324;4.590;2022-09-09T09:50:57;15.70;99.90
23186;DHT22;11761;51.324;4.590;2022-09-09T09:53:28;15.70;99.90
23186;DHT22;11761;51.324;4.590;2022-09-09T09:56:18;15.70;99.90
23186;DHT22;11761;51.324;4.590;2022-09-09T09:58:50;15.70;99.90
23186;DHT22;11761;51.324;4.590;2022-09-09T10:01:27;15.60;99.90
23186;DHT22;11761;51.324;4.590;2022-09-09T10:03:58;15.60;99.90
23186;DHT22;11761;51.324;4.590;2022-09-09T10:06:35;15.60;99.90
23186;DHT22;11761;51.324;4.590;2022-09-09T10:09:04;15.60;99.90
23186;DHT22;11761;51.324;4.590;2022-09-09T10:11:46;15.60;99.90
23186;DHT22;11761;51.324;4.590;2022-09-09T10:14:44;15.70;99.90
23186;DHT22;11761;51.324;4.590;2022-09-09T10:20:14;15.50;99.90
23186;DHT22;11761;51.324;4.590;2022-09-09T10:22:54;15.40;99.90
23186;DHT22;11761;51.324;4.590;2022-09-09T10:28:37;15.40;99.90
23186;DHT22;11761;51.324;4.590;2022-09-09T10:31:24;15.50;99.90
23186;DHT22;11761;51.324;4.590;2022-09-09T10:34:13;15.70;99.90
23186;DHT22;11761;51.324;4.590;2022-09-09T10:36:47;15.90;99.90
23186;DHT22;11761;51.324;4.590;2022-09-09T10:39:36;16.00;99.90
23186;DHT22;11761;51.324;4.590;2022-09-09T10:42:09;16.10;99.90
23186;DHT22;11761;51.324;4.590;2022-09-09T10:56:12;15.90;99.90
23186;DHT22;11761;51.324;4.590;2022-09-09T10:59:00;15.90;99.90
23186;DHT22;11761;51.324;4.590;2022-09-09T11:01:43;15.90;99.90
23186;DHT22;11761;51.324;4.590;2022-09-09T11:04:19;15.90;99.90
23186;DHT22;11761;51.324;4.590;2022-09-09T11:06:55;15.90;99.90
23186;DHT22;11761;51.324;4.590;2022-09-09T11:09:24;15.90;99.90
23186;DHT22;11761;51.324;4.590;2022-09-09T11:11:55;15.90;99.90
23186;DHT22;11761;51.324;4.590;2022-09-09T11:14:36;15.90;99.90
23186;DHT22;11761;51.324;4.590;2022-09-09T11:17:13;15.90;99.90
23186;DHT22;11761;51.324;4.590;2022-09-09T11:19:42;15.90;99.90
23186;DHT22;11761;51.324;4.590;2022-09-09T11:22:33;16.00;99.90
23186;DHT22;11761;51.324;4.590;2022-09-09T11:30:42;16.10;99.90
23186;DHT22;11761;51.324;4.590;2022-09-09T11:44:40;16.90;99.90
23186;DHT22;11761;51.324;4.590;2022-09-09T11:47:28;17.10;99.90
23186;DHT22;11761;51.324;4.590;2022-09-09T11:52:43;16.90;99.90
23186;DHT22;11761;51.324;4.590;2022-09-09T11:55:34;16.90;99.90
23186;DHT22;11761;51.324;4.590;2022-09-09T11:58:04;16.90;99.90
23186;DHT22;11761;51.324;4.590;2022-09-09T12:00:42;16.90;99.90
23186;DHT22;11761;51.324;4.590;2022-09-09T12:03:36;17.20;99.90
23186;DHT22;11761;51.324;4.590;2022-09-09T12:06:28;17.30;99.90
23186;DHT22;11761;51.324;4.590;2022-09-09T12:09:06;17.30;99.90
23186;DHT22;11761;51.324;4.590;2022-09-09T12:11:34;17.30;99.90
23186;DHT22;11761;51.324;4.590;2022-09-09T12:14:01;17.40;99.90
23186;DHT22;11761;51.324;4.590;2022-09-09T12:16:36;17.40;99.90
23186;DHT22;11761;51.324;4.590;2022-09-09T12:19:23;17.40;99.90
23186;DHT22;11761;51.324;4.590;2022-09-09T12:22:07;17.40;99.90
23186;DHT22;11761;51.324;4.590;2022-09-09T12:24:41;17.50;99.90
23186;DHT22;11761;51.324;4.590;2022-09-09T12:32:30;17.50;99.90
23186;DHT22;11761;51.324;4.590;2022-09-09T12:37:31;17.40;99.90
23186;DHT22;11761;51.324;4.590;2022-09-09T12:40:00;17.50;99.90
23186;DHT22;11761;51.324;4.590;2022-09-09T12:42:28;17.50;99.90
23186;DHT22;11761;51.324;4.590;2022-09-09T12:44:59;17.50;99.90
23186;DHT22;11761;51.324;4.590;2022-09-09T12:47:41;17.60;99.90
23186;DHT22;11761;51.324;4.590;2022-09-09T12:50:47;17.60;99.90
23186;DHT22;11761;51.324;4.590;2022-09-09T12:53:26;17.50;99.90
23186;DHT22;11761;51.324;4.590;2022-09-09T12:56:05;17.50;99.90
23186;DHT22;11761;51.324;4.590;2022-09-09T12:58:35;17.50;99.90
23186;DHT22;11761;51.324;4.590;2022-09-09T13:01:04;17.70;99.90
23186;DHT22;11761;51.324;4.590;2022-09-09T13:03:32;17.80;99.90
23186;DHT22;11761;51.324;4.590;2022-09-09T13:06:11;17.80;99.90
23186;DHT22;11761;51.324;4.590;2022-09-09T13:08:38;17.80;99.90
23186;DHT22;11761;51.324;4.590;2022-09-09T13:11:14;17.80;99.90
23186;DHT22;11761;51.324;4.590;2022-09-09T13:13:42;17.80;99.90
23186;DHT22;11761;51.324;4.590;2022-09-09T13:16:25;18.00;99.90
23186;DHT22;11761;51.324;4.590;2022-09-09T13:18:52;18.20;99.90
23186;DHT22;11761;51.324;4.590;2022-09-09T13:21:19;18.30;99.90
23186;DHT22;11761;51.324;4.590;2022-09-09T13:23:50;18.40;99.90
23186;DHT22;11761;51.324;4.590;2022-09-09T13:26:24;18.70;99.90
23186;DHT22;11761;51.324;4.590;2022-09-09T13:28:52;18.70;99.90
23186;DHT22;11761;51.324;4.590;2022-09-09T13:33:48;18.60;99.90
23186;DHT22;11761;51.324;4.590;2022-09-09T13:36:14;18.50;99.90
23186;DHT22;11761;51.324;4.590;2022-09-09T13:38:54;18.40;99.90
23186;DHT22;11761;51.324;4.590;2022-09-09T13:41:25;18.30;99.90
23186;DHT22;11761;51.324;4.590;2022-09-09T13:43:53;18.70;99.90
23186;DHT22;11761;51.324;4.590;2022-09-09T13:46:38;18.80;99.90
23186;DHT22;11761;51.324;4.590;2022-09-09T13:51:45;19.00;99.90
23186;DHT22;11761;51.324;4.590;2022-09-09T13:54:14;19.00;99.90
23186;DHT22;11761;51.324;4.590;2022-09-09T13:56:42;19.20;99.90
23186;DHT22;11761;51.324;4.590;2022-09-09T13:59:13;19.40;99.90
23186;DHT22;11761;51.324;4.590;2022-09-09T14:01:40;19.40;99.90
23186;DHT22;11761;51.324;4.590;2022-09-09T14:04:07;19.20;99.90
23186;DHT22;11761;51.324;4.590;2022-09-09T14:06:38;19.00;99.90
23186;DHT22;11761;51.324;4.590;2022-09-09T14:09:06;18.90;99.90
23186;DHT22;11761;51.324;4.590;2022-09-09T14:11:32;18.70;99.90
23186;DHT22;11761;51.324;4.590;2022-09-09T14:13:59;18.40;99.90
23186;DHT22;11761;51.324;4.590;2022-09-09T14:16:26;17.90;99.90
23186;DHT22;11761;51.324;4.590;2022-09-09T14:18:53;17.40;99.90
23186;DHT22;11761;51.324;4.590;2022-09-09T14:21:22;17.00;99.90
23186;DHT22;11761;51.324;4.590;2022-09-09T14:23:49;16.90;99.90
23186;DHT22;11761;51.324;4.590;2022-09-09T14:26:15;16.80;99.90
23186;DHT22;11761;51.324;4.590;2022-09-09T14:28:41;16.80;99.90
23186;DHT22;11761;51.324;4.590;2022-09-09T14:31:07;16.90;99.90
23186;DHT22;11761;51.324;4.590;2022-09-09T14:33:33;17.10;99.90
23186;DHT22;11761;51.324;4.590;2022-09-09T14:36:04;17.40;99.90
23186;DHT22;11761;51.324;4.590;2022-09-09T14:38:35;17.70;99.90
23186;DHT22;11761;51.324;4.590;2022-09-09T14:41:06;17.90;99.90
23186;DHT22;11761;51.324;4.590;2022-09-09T14:43:32;18.00;99.90
23186;DHT22;11761;51.324;4.590;2022-09-09T14:46:10;18.00;99.90
23186;DHT22;11761;51.324;4.590;2022-09-09T14:48:37;18.00;99.90
23186;DHT22;11761;51.324;4.590;2022-09-09T14:51:09;17.90;99.90
23186;DHT22;11761;51.324;4.590;2022-09-09T14:53:36;17.80;99.90
23186;DHT22;11761;51.324;4.590;2022-09-09T14:56:12;17.70;99.90
23186;DHT22;11761;51.324;4.590;2022-09-09T14:58:38;17.70;99.90
23186;DHT22;11761;51.324;4.590;2022-09-09T15:01:09;17.70;99.90
23186;DHT22;11761;51.324;4.590;2022-09-09T15:03:37;17.90;99.90
23186;DHT22;11761;51.324;4.590;2022-09-09T15:06:07;17.90;99.90
23186;DHT22;11761;51.324;4.590;2022-09-09T15:08:40;18.00;99.90
23186;DHT22;11761;51.324;4.590;2022-09-09T15:11:13;18.00;99.90
23186;DHT22;11761;51.324;4.590;2022-09-09T15:13:41;17.90;99.90
23186;DHT22;11761;51.324;4.590;2022-09-09T15:16:14;17.90;99.90
23186;DHT22;11761;51.324;4.590;2022-09-09T15:18:41;17.70;99.90
23186;DHT22;11761;51.324;4.590;2022-09-09T15:21:18;17.60;99.90
23186;DHT22;11761;51.324;4.590;2022-09-09T15:23:48;17.30;99.90
23186;DHT22;11761;51.324;4.590;2022-09-09T15:26:15;17.20;99.90
23186;DHT22;11761;51.324;4.590;2022-09-09T15:28:44;17.10;99.90
23186;DHT22;11761;51.324;4.590;2022-09-09T15:33:39;17.00;99.90
23186;DHT22;11761;51.324;4.590;2022-09-09T15:36:24;17.00;99.90
23186;DHT22;11761;51.324;4.590;2022-09-09T15:38:51;16.90;99.90
23186;DHT22;11761;51.324;4.590;2022-09-09T15:41:19;16.90;99.90
23186;DHT22;11761;51.324;4.590;2022-09-09T15:43:52;16.90;99.90
23186;DHT22;11761;51.324;4.590;2022-09-09T15:46:37;16.90;99.90
23186;DHT22;11761;51.324;4.590;2022-09-09T15:51:35;16.80;99.90
23186;DHT22;11761;51.324;4.590;2022-09-09T15:54:03;16.90;99.90
23186;DHT22;11761;51.324;4.590;2022-09-09T15:56:30;16.90;99.90
23186;DHT22;11761;51.324;4.590;2022-09-09T15:58:57;16.90;99.90
23186;DHT22;11761;51.324;4.590;2022-09-09T16:01:28;16.90;99.90
23186;DHT22;11761;51.324;4.590;2022-09-09T16:03:54;16.90;99.90
23186;DHT22;11761;51.324;4.590;2022-09-09T16:06:22;16.90;99.90
23186;DHT22;11761;51.324;4.590;2022-09-09T16:08:51;16.80;99.90
23186;DHT22;11761;51.324;4.590;2022-09-09T16:11:19;16.90;99.90
23186;DHT22;11761;51.324;4.590;2022-09-09T16:13:47;16.80;99.90
23186;DHT22;11761;51.324;4.590;2022-09-09T16:16:19;16.80;99.90
23186;DHT22;11761;51.324;4.590;2022-09-09T16:18:53;16.90;99.90
23186;DHT22;11761;51.324;4.590;2022-09-09T16:21:28;16.90;99.90
23186;DHT22;11761;51.324;4.590;2022-09-09T16:23:56;17.10;99.90
23186;DHT22;11761;51.324;4.590;2022-09-09T16:26:23;17.30;99.90
23186;DHT22;11761;51.324;4.590;2022-09-09T16:28:49;17.40;99.90
23186;DHT22;11761;51.324;4.590;2022-09-09T16:31:18;17.60;99.90
23186;DHT22;11761;51.324;4.590;2022-09-09T16:33:45;17.70;99.90
23186;DHT22;11761;51.324;4.590;2022-09-09T16:36:14;17.70;99.90
23186;DHT22;11761;51.324;4.590;2022-09-09T16:38:40;17.60;99.90
23186;DHT22;11761;51.324;4.590;2022-09-09T16:41:07;17.60;99.90
23186;DHT22;11761;51.324;4.590;2022-09-09T16:43:35;17.50;99.90
23186;DHT22;11761;51.324;4.590;2022-09-09T16:46:03;17.50;99.90
23186;DHT22;11761;51.324;4.590;2022-09-09T16:48:33;17.40;99.90
23186;DHT22;11761;51.324;4.590;2022-09-09T16:51:05;17.30;99.90
23186;DHT22;11761;51.324;4.590;2022-09-09T16:53:32;17.30;99.90
23186;DHT22;11761;51.324;4.590;2022-09-09T16:56:05;17.20;99.90
23186;DHT22;11761;51.324;4.590;2022-09-09T16:58:32;17.10;99.90
23186;DHT22;11761;51.324;4.590;2022-09-09T17:00:59;17.00;99.90
23186;DHT22;11761;51.324;4.590;2022-09-09T17:03:25;17.00;99.90
23186;DHT22;11761;51.324;4.590;2022-09-09T17:05:51;16.90;99.90
23186;DHT22;11761;51.324;4.590;2022-09-09T17:08:17;16.90;99.90
23186;DHT22;11761;51.324;4.590;2022-09-09T17:10:43;16.80;99.90
23186;DHT22;11761;51.324;4.590;2022-09-09T17:13:10;16.80;99.90
23186;DHT22;11761;51.324;4.590;2022-09-09T17:15:42;16.80;99.90
23186;DHT22;11761;51.324;4.590;2022-09-09T17:18:10;16.70;99.90
23186;DHT22;11761;51.324;4.590;2022-09-09T17:20:37;16.60;99.90
23186;DHT22;11761;51.324;4.590;2022-09-09T17:23:03;16.50;99.90
23186;DHT22;11761;51.324;4.590;2022-09-09T17:25:29;16.40;99.90
23186;DHT22;11761;51.324;4.590;2022-09-09T17:27:55;16.40;99.90
23186;DHT22;11761;51.324;4.590;2022-09-09T17:30:22;16.40;99.90
23186;DHT22;11761;51.324;4.590;2022-09-09T17:32:48;16.30;99.90
23186;DHT22;11761;51.324;4.590;2022-09-09T17:35:14;16.40;99.90
23186;DHT22;11761;51.324;4.590;2022-09-09T17:37:40;16.40;99.90
23186;DHT22;11761;51.324;4.590;2022-09-09T17:40:07;16.40;99.90
23186;DHT22;11761;51.324;4.590;2022-09-09T17:42:34;16.30;99.90
23186;DHT22;11761;51.324;4.590;2022-09-09T17:45:01;16.30;99.90
23186;DHT22;11761;51.324;4.590;2022-09-09T17:47:27;16.40;99.90
23186;DHT22;11761;51.324;4.590;2022-09-09T17:49:54;16.40;99.90
23186;DHT22;11761;51.324;4.590;2022-09-09T17:52:20;16.30;99.90
23186;DHT22;11761;51.324;4.590;2022-09-09T17:54:46;16.30;99.90
23186;DHT22;11761;51.324;4.590;2022-09-09T17:57:13;16.30;99.90